Time;durP1;ratioP1;P1;durP2;ratioP2;P2;SDS_P1;SDS_P2;PMS_P1;PMS_P2;Temp;Humidity;BMP_temperature;BMP_pressure;BME280_temperature;BME280_humidity;BME280_pressure;Samples;Min_cycle;Max_cycle;Signal;HPM_P1;HPM_P2
2024/04/13 00:00:38;;;;;;;;;;;;;;;22.35;42.50;101745.86;103630;1295;61354;-78
2024/04/13 00:03:05;;;;;;;;;;;;;;;22.35;42.53;101747.29;103380;1292;61519;-78
2024/04/13 00:05:31;;;;;;;;;;;;;;;22.36;42.36;101747.10;103424;1295;61553;-78
2024/04/13 00:07:57;;;;;;;;;;;;;;;22.36;42.43;101754.46;103465;1289;61540;-78
2024/04/13 00:10:25;;;;;;;;;;;;;;;22.35;42.43;101760.91;103378;1294;61372;-78
2024/04/13 00:12:51;;;;;;;;;;;;;;;22.35;42.51;101757.68;103556;1290;61374;-78
2024/04/13 00:15:17;;;;;;;;;;;;;;;22.35;42.51;101758.77;103343;1289;61388;-79
2024/04/13 00:17:43;;;;;;;;;;;;;;;22.35;42.38;101752.13;103414;1290;61352;-78
2024/04/13 00:20:09;;;;;;;;;;;;;;;22.35;42.55;101755.73;103422;1288;62591;-77
2024/04/13 00:22:36;;;;;;;;;;;;;;;22.35;42.49;101757.89;103578;1289;61391;-77
2024/04/13 00:25:02;;;;;;;;;;;;;;;22.35;42.52;101761.27;103594;1290;61401;-78
2024/04/13 00:27:28;;;;;;;;;;;;;;;22.35;42.43;101761.82;103552;1292;61851;-77
2024/04/13 00:29:54;;;;;;;;;;;;;;;22.35;42.59;101760.02;103796;1286;62648;-77
2024/04/13 00:32:19;;;;;;;;;;;;;;;22.35;42.57;101760.77;103920;1284;61380;-78
2024/04/13 00:34:47;;;;;;;;;;;;;;;22.35;42.57;101763.42;103698;1292;61431;-78
2024/04/13 00:37:13;;;;;;;;;;;;;;;22.35;42.62;101761.47;103748;1291;61265;-77
2024/04/13 00:39:39;;;;;;;;;;;;;;;22.35;42.68;101758.42;103825;1286;61306;-77
2024/04/13 00:42:05;;;;;;;;;;;;;;;22.35;42.42;101754.66;103764;1288;61326;-79
2024/04/13 00:44:30;;;;;;;;;;;;;;;22.35;42.60;101753.02;103762;1286;61388;-78
2024/04/13 00:47:04;;;;;;;;;;;;;;;22.35;42.58;101746.95;103819;1286;61377;-78
2024/04/13 00:49:31;;;;;;;;;;;;;;;22.35;42.55;101747.30;103748;1287;72406;-78
2024/04/13 00:51:58;;;;;;;;;;;;;;;22.35;42.74;101745.70;103802;1285;74490;-78
2024/04/13 00:54:24;;;;;;;;;;;;;;;22.35;42.56;101749.10;103785;1287;61921;-78
2024/04/13 00:56:50;;;;;;;;;;;;;;;22.35;42.48;101749.45;103748;1286;61287;-78
2024/04/13 00:59:15;;;;;;;;;;;;;;;22.35;42.51;101747.33;103836;1286;61438;-78
2024/04/13 01:01:41;;;;;;;;;;;;;;;22.35;42.53;101749.65;103721;1286;61416;-78
2024/04/13 01:04:08;;;;;;;;;;;;;;;22.35;42.63;101751.44;103651;1286;61374;-78
2024/04/13 01:06:35;;;;;;;;;;;;;;;22.34;42.56;101753.77;103946;1288;61288;-77
2024/04/13 01:09:03;;;;;;;;;;;;;;;22.35;42.61;101749.45;103805;1289;61454;-78
2024/04/13 01:11:34;;;;;;;;;;;;;;;22.34;42.64;101749.47;103804;1286;72353;-78
2024/04/13 01:14:01;;;;;;;;;;;;;;;22.34;42.67;101747.69;103859;1286;74249;-79
2024/04/13 01:16:27;;;;;;;;;;;;;;;22.34;42.57;101743.02;103782;1287;61279;-78
2024/04/13 01:18:53;;;;;;;;;;;;;;;22.34;42.74;101736.76;103782;1286;61369;-79
2024/04/13 01:21:18;;;;;;;;;;;;;;;22.34;42.63;101731.89;103802;1289;61381;-78
2024/04/13 01:23:44;;;;;;;;;;;;;;;22.34;42.54;101731.71;103531;1286;61390;-79
2024/04/13 01:26:10;;;;;;;;;;;;;;;22.34;42.51;101729.56;103703;1290;61327;-78
2024/04/13 01:28:36;;;;;;;;;;;;;;;22.34;42.57;101727.96;103830;1292;62187;-78
2024/04/13 01:31:02;;;;;;;;;;;;;;;22.34;42.68;101726.02;103795;1285;61393;-79
2024/04/13 01:33:31;;;;;;;;;;;;;;;22.34;42.60;101726.17;103781;1288;61418;-78
2024/04/13 01:35:58;;;;;;;;;;;;;;;22.33;42.55;101727.47;103496;1290;73178;-78
2024/04/13 01:38:23;;;;;;;;;;;;;;;22.34;42.58;101731.95;103794;1289;61332;-78
2024/04/13 01:40:49;;;;;;;;;;;;;;;22.33;42.72;101730.17;103759;1292;61416;-78
2024/04/13 01:43:14;;;;;;;;;;;;;;;22.34;42.59;101730.15;103745;1290;61351;-77
2024/04/13 01:45:40;;;;;;;;;;;;;;;22.33;42.52;101724.27;103730;1286;61388;-78
2024/04/13 01:48:06;;;;;;;;;;;;;;;22.34;42.62;101721.02;103804;1287;61437;-78
2024/04/13 01:50:32;;;;;;;;;;;;;;;22.33;42.70;101723.35;103739;1289;61337;-79
2024/04/13 01:52:57;;;;;;;;;;;;;;;22.33;42.72;101723.17;103847;1286;61384;-79
2024/04/13 01:55:23;;;;;;;;;;;;;;;22.33;42.67;101725.88;103773;1286;61720;-78
2024/04/13 01:57:48;;;;;;;;;;;;;;;22.33;42.77;101724.61;103789;1286;61739;-79
2024/04/13 02:00:18;;;;;;;;;;;;;;;22.33;42.71;101727.48;103815;1290;61348;-79
2024/04/13 02:02:44;;;;;;;;;;;;;;;22.34;42.70;101727.10;103746;1290;61377;-78
2024/04/13 02:05:09;;;;;;;;;;;;;;;22.33;42.61;101721.58;103842;1289;61444;-78
2024/04/13 02:07:36;;;;;;;;;;;;;;;22.33;42.69;101723.17;103765;1287;61387;-78
2024/04/13 02:10:03;;;;;;;;;;;;;;;22.33;42.66;101721.92;104042;1288;61378;-80
2024/04/13 02:12:29;;;;;;;;;;;;;;;22.33;42.69;101719.61;103767;1284;61373;-77
2024/04/13 02:14:54;;;;;;;;;;;;;;;22.33;42.66;101721.06;103742;1287;61387;-77
2024/04/13 02:17:21;;;;;;;;;;;;;;;22.33;42.70;101723.36;103718;1288;62646;-77
2024/04/13 02:19:47;;;;;;;;;;;;;;;22.33;42.77;101720.70;103752;1289;61387;-77
2024/04/13 02:22:15;;;;;;;;;;;;;;;22.33;42.70;101721.60;103779;1286;61381;-77
2024/04/13 02:24:43;;;;;;;;;;;;;;;22.33;42.60;101725.17;103445;1290;676107;-77
2024/04/13 02:27:10;;;;;;;;;;;;;;;22.33;42.65;101724.65;103822;1288;74261;-78
2024/04/13 02:29:43;;;;;;;;;;;;;;;22.32;42.68;101725.75;103845;1289;61361;-78
2024/04/13 02:32:08;;;;;;;;;;;;;;;22.32;42.63;101730.41;103745;1288;61345;-78
2024/04/13 02:34:34;;;;;;;;;;;;;;;22.32;42.78;101731.30;103847;1289;61377;-78
2024/04/13 02:36:59;;;;;;;;;;;;;;;22.32;42.63;101732.38;103885;1287;61400;-78
2024/04/13 02:39:26;;;;;;;;;;;;;;;22.32;42.64;101735.77;103842;1287;61303;-79
2024/04/13 02:41:52;;;;;;;;;;;;;;;22.32;42.62;101732.55;103810;1287;61288;-79
2024/04/13 02:44:18;;;;;;;;;;;;;;;22.32;42.66;101738.30;103769;1292;62527;-78
2024/04/13 02:46:43;;;;;;;;;;;;;;;22.32;42.64;101734.03;103783;1292;61381;-78
2024/04/13 02:49:09;;;;;;;;;;;;;;;22.32;42.46;101733.45;103760;1292;74362;-78
2024/04/13 02:51:35;;;;;;;;;;;;;;;22.32;42.67;101732.58;103806;1289;61407;-78
2024/04/13 02:54:00;;;;;;;;;;;;;;;22.31;42.64;101732.63;103723;1287;61432;-78
2024/04/13 02:56:26;;;;;;;;;;;;;;;22.32;42.62;101733.31;103733;1287;61406;-78
2024/04/13 02:58:51;;;;;;;;;;;;;;;22.32;42.79;101730.61;103810;1292;61364;-78
2024/04/13 03:01:17;;;;;;;;;;;;;;;22.32;42.66;101734.41;103856;1286;61316;-78
2024/04/13 03:03:42;;;;;;;;;;;;;;;22.31;42.64;101735.86;103823;1289;61466;-77
2024/04/13 03:06:09;;;;;;;;;;;;;;;22.32;42.58;101732.45;103725;1289;61403;-77
2024/04/13 03:08:35;;;;;;;;;;;;;;;22.31;42.73;101734.25;103746;1291;61393;-77
2024/04/13 03:11:00;;;;;;;;;;;;;;;22.31;42.67;101737.83;103797;1289;61378;-77
2024/04/13 03:13:26;;;;;;;;;;;;;;;22.31;42.67;101737.84;103991;1284;61461;-79
2024/04/13 03:15:58;;;;;;;;;;;;;;;22.31;42.72;101734.05;103752;1292;61439;-78
2024/04/13 03:18:28;;;;;;;;;;;;;;;22.31;42.63;101738.55;103724;1289;61333;-77
2024/04/13 03:20:55;;;;;;;;;;;;;;;22.31;42.76;101736.03;103762;1289;72480;-77
2024/04/13 03:23:20;;;;;;;;;;;;;;;22.31;42.70;101732.84;103859;1289;61317;-78
2024/04/13 03:25:46;;;;;;;;;;;;;;;22.31;42.58;101732.31;103728;1289;61355;-77
2024/04/13 03:28:12;;;;;;;;;;;;;;;22.31;42.67;101735.88;103801;1286;61403;-78
2024/04/13 03:30:41;;;;;;;;;;;;;;;22.31;42.71;101737.14;103752;1291;61360;-77
2024/04/13 03:33:07;;;;;;;;;;;;;;;22.31;42.65;101740.36;103773;1289;62540;-77
2024/04/13 03:35:38;;;;;;;;;;;;;;;22.31;42.67;101741.27;103768;1286;61377;-78
2024/04/13 03:38:07;;;;;;;;;;;;;;;22.31;42.77;101747.36;103713;1286;61380;-78
2024/04/13 03:40:35;;;;;;;;;;;;;;;22.30;42.72;101748.45;103747;1290;72383;-79
2024/04/13 03:43:01;;;;;;;;;;;;;;;22.30;42.78;101744.52;103754;1286;75269;-78
2024/04/13 03:45:27;;;;;;;;;;;;;;;22.30;42.65;101744.36;103744;1286;61592;-78
2024/04/13 03:47:52;;;;;;;;;;;;;;;22.30;42.58;101742.20;103590;1289;61907;-78
2024/04/13 03:50:18;;;;;;;;;;;;;;;22.30;42.65;101744.52;104060;1286;61377;-78
2024/04/13 03:52:44;;;;;;;;;;;;;;;22.30;42.58;101742.00;103791;1287;61397;-78
2024/04/13 03:55:09;;;;;;;;;;;;;;;22.30;42.68;101743.80;103711;1286;74365;-77
2024/04/13 03:57:35;;;;;;;;;;;;;;;22.30;42.81;101745.79;103857;1287;61370;-78
2024/04/13 04:00:00;;;;;;;;;;;;;;;22.30;42.69;101749.40;103726;1289;62575;-77
2024/04/13 04:02:26;;;;;;;;;;;;;;;22.30;42.65;101752.27;103779;1289;61381;-78
2024/04/13 04:04:52;;;;;;;;;;;;;;;22.30;42.72;101751.16;103814;1286;61499;-78
2024/04/13 04:07:17;;;;;;;;;;;;;;;22.30;42.68;101749.54;103912;1285;76267;-79
2024/04/13 04:09:44;;;;;;;;;;;;;;;22.30;42.56;101752.23;103823;1292;61390;-78
2024/04/13 04:12:10;;;;;;;;;;;;;;;22.30;42.63;101752.24;103718;1286;61345;-79
2024/04/13 04:14:36;;;;;;;;;;;;;;;22.30;42.77;101751.70;103767;1289;61384;-79
2024/04/13 04:17:02;;;;;;;;;;;;;;;22.30;42.60;101756.57;103809;1284;61474;-79
2024/04/13 04:19:28;;;;;;;;;;;;;;;22.30;42.62;101756.40;103720;1287;61406;-78
2024/04/13 04:21:54;;;;;;;;;;;;;;;22.30;42.66;101753.69;103819;1290;61364;-78
2024/04/13 04:24:22;;;;;;;;;;;;;;;22.30;42.58;101757.11;103690;1286;61345;-78
2024/04/13 04:26:48;;;;;;;;;;;;;;;22.30;42.82;101758.19;103815;1286;62064;-78
2024/04/13 04:29:14;;;;;;;;;;;;;;;22.30;42.80;101762.45;103698;1292;61443;-79
2024/04/13 04:31:41;;;;;;;;;;;;;;;22.30;42.59;101762.12;103780;1289;62559;-78
2024/04/13 04:34:07;;;;;;;;;;;;;;;22.30;42.63;101764.46;103791;1289;61313;-78
2024/04/13 04:36:33;;;;;;;;;;;;;;;22.30;42.51;101769.67;103798;1286;61413;-77
2024/04/13 04:38:58;;;;;;;;;;;;;;;22.30;42.74;101768.92;103719;1286;61390;-77
2024/04/13 04:41:24;;;;;;;;;;;;;;;22.30;42.67;101771.09;103813;1290;62662;-77
2024/04/13 04:43:49;;;;;;;;;;;;;;;22.30;42.75;101771.09;103777;1286;61342;-78
2024/04/13 04:46:15;;;;;;;;;;;;;;;22.30;42.76;101769.66;103804;1287;61418;-79
2024/04/13 04:48:41;;;;;;;;;;;;;;;22.30;42.59;101768.77;103671;1289;61368;-78
2024/04/13 04:51:07;;;;;;;;;;;;;;;22.29;42.63;101770.05;104016;1289;61416;-76
2024/04/13 04:53:33;;;;;;;;;;;;;;;22.30;42.61;101770.91;103849;1287;61291;-77
2024/04/13 04:55:58;;;;;;;;;;;;;;;22.29;42.60;101769.50;103853;1289;62533;-77
2024/04/13 04:58:24;;;;;;;;;;;;;;;22.30;42.67;101770.58;103850;1286;72529;-78
2024/04/13 05:00:50;;;;;;;;;;;;;;;22.29;42.60;101767.89;103835;1287;61342;-78
2024/04/13 05:03:16;;;;;;;;;;;;;;;22.30;42.66;101767.52;103801;1286;61380;-78
2024/04/13 05:05:41;;;;;;;;;;;;;;;22.30;42.68;101766.23;103768;1286;61275;-78
2024/04/13 05:08:07;;;;;;;;;;;;;;;22.30;42.66;101766.08;103847;1285;61365;-79
2024/04/13 05:10:33;;;;;;;;;;;;;;;22.29;42.61;101766.44;103794;1292;61426;-79
2024/04/13 05:12:58;;;;;;;;;;;;;;;22.30;42.62;101762.64;103850;1292;74451;-79
2024/04/13 05:15:24;;;;;;;;;;;;;;;22.30;42.65;101763.90;103879;1289;61396;-78
2024/04/13 05:17:50;;;;;;;;;;;;;;;22.31;42.56;101767.27;103864;1286;62171;-79
2024/04/13 05:20:16;;;;;;;;;;;;;;;22.31;42.67;101765.46;103881;1286;61381;-79
2024/04/13 05:22:42;;;;;;;;;;;;;;;22.31;42.65;101763.31;103800;1290;61365;-79
2024/04/13 05:25:07;;;;;;;;;;;;;;;22.31;42.57;101763.30;103816;1286;61755;-79
2024/04/13 05:27:33;;;;;;;;;;;;;;;22.31;42.75;101763.83;103998;1286;61823;-79
2024/04/13 05:30:02;;;;;;;;;;;;;;;22.31;42.70;101758.09;103858;1286;61374;-79
2024/04/13 05:32:29;;;;;;;;;;;;;;;22.32;42.60;101761.86;103864;1288;73482;-78
2024/04/13 05:34:56;;;;;;;;;;;;;;;22.32;42.49;101754.46;103902;1286;74621;-79
2024/04/13 05:37:22;;;;;;;;;;;;;;;22.32;42.63;101756.05;103749;1286;61365;-79
2024/04/13 05:39:47;;;;;;;;;;;;;;;22.32;42.61;101752.30;103843;1290;61372;-79
2024/04/13 05:42:13;;;;;;;;;;;;;;;22.33;42.62;101748.16;103791;1290;61505;-79
2024/04/13 05:44:38;;;;;;;;;;;;;;;22.33;42.73;101748.84;103717;1286;61371;-78
2024/04/13 05:47:04;;;;;;;;;;;;;;;22.33;42.74;101748.48;103999;1287;62479;-78
2024/04/13 05:49:30;;;;;;;;;;;;;;;22.34;42.59;101751.84;103701;1287;61262;-77
2024/04/13 05:51:56;;;;;;;;;;;;;;;22.34;42.56;101752.17;103744;1289;61291;-77
2024/04/13 05:54:22;;;;;;;;;;;;;;;22.34;42.69;101752.70;103734;1286;61402;-77
2024/04/13 05:56:47;;;;;;;;;;;;;;;22.35;42.60;101753.41;103735;1289;62088;-77
2024/04/13 05:59:13;;;;;;;;;;;;;;;22.35;42.61;101759.69;103859;1289;61365;-79
2024/04/13 06:01:41;;;;;;;;;;;;;;;22.35;42.65;101760.73;103671;1286;61499;-78
2024/04/13 06:04:07;;;;;;;;;;;;;;;22.36;42.54;101759.44;103709;1286;61391;-77
2024/04/13 06:06:33;;;;;;;;;;;;;;;22.36;42.52;101757.63;103721;1289;61397;-78
2024/04/13 06:09:02;;;;;;;;;;;;;;;22.37;42.65;101762.05;103620;1288;73371;-79
2024/04/13 06:11:28;;;;;;;;;;;;;;;22.38;42.48;101762.20;103780;1285;61493;-78
2024/04/13 06:13:53;;;;;;;;;;;;;;;22.38;42.48;101763.80;103910;1285;62426;-78
2024/04/13 06:16:20;;;;;;;;;;;;;;;22.39;42.50;101761.77;103781;1289;61396;-76
2024/04/13 06:18:45;;;;;;;;;;;;;;;22.39;42.42;101763.20;103740;1286;61390;-77
2024/04/13 06:21:11;;;;;;;;;;;;;;;22.40;42.29;101764.39;103884;1290;61486;-77
2024/04/13 06:23:38;;;;;;;;;;;;;;;22.41;42.51;101767.02;103729;1292;63352;-79
2024/04/13 06:26:05;;;;;;;;;;;;;;;22.41;42.33;101768.60;103749;1286;61291;-79
2024/04/13 06:28:31;;;;;;;;;;;;;;;22.42;42.30;101769.13;103790;1289;72499;-79
2024/04/13 06:30:57;;;;;;;;;;;;;;;22.43;42.27;101767.11;103752;1289;62456;-78
2024/04/13 06:33:23;;;;;;;;;;;;;;;22.43;42.22;101770.14;103774;1289;61380;-77
2024/04/13 06:35:49;;;;;;;;;;;;;;;22.43;42.21;101768.88;103699;1286;61317;-79
2024/04/13 06:38:18;;;;;;;;;;;;;;;22.44;42.16;101767.38;103814;1292;61388;-79
2024/04/13 06:40:44;;;;;;;;;;;;;;;22.45;42.35;101766.79;103714;1286;74191;-78
2024/04/13 06:43:09;;;;;;;;;;;;;;;22.46;42.19;101768.19;103846;1285;61398;-78
2024/04/13 06:45:38;;;;;;;;;;;;;;;22.47;42.30;101769.92;103712;1289;61349;-79
2024/04/13 06:48:04;;;;;;;;;;;;;;;22.47;42.23;101772.02;103720;1286;72447;-78
2024/04/13 06:50:30;;;;;;;;;;;;;;;22.48;42.26;101769.83;103764;1290;61666;-78
2024/04/13 06:52:56;;;;;;;;;;;;;;;22.48;42.26;101767.83;103775;1286;61331;-78
2024/04/13 06:55:21;;;;;;;;;;;;;;;22.49;42.14;101772.46;103762;1286;61464;-78
2024/04/13 06:57:47;;;;;;;;;;;;;;;22.50;42.15;101771.31;103777;1286;61415;-78
2024/04/13 07:00:12;;;;;;;;;;;;;;;22.51;42.24;101769.66;103814;1287;61477;-78
2024/04/13 07:02:38;;;;;;;;;;;;;;;22.51;42.31;101772.71;103759;1285;74707;-79
2024/04/13 07:05:04;;;;;;;;;;;;;;;22.52;42.19;101769.59;103718;1287;61406;-78
2024/04/13 07:07:29;;;;;;;;;;;;;;;22.52;42.28;101772.63;103690;1286;61435;-79
2024/04/13 07:09:55;;;;;;;;;;;;;;;22.53;42.07;101771.48;103841;1286;62482;-79
2024/04/13 07:12:21;;;;;;;;;;;;;;;22.53;42.17;101772.91;103769;1287;61420;-79
2024/04/13 07:14:46;;;;;;;;;;;;;;;22.54;42.06;101773.00;103747;1287;61282;-78
2024/04/13 07:17:12;;;;;;;;;;;;;;;22.55;42.10;101775.87;103725;1289;62475;-78
2024/04/13 07:19:37;;;;;;;;;;;;;;;22.55;42.15;101778.20;103813;1286;61397;-78
2024/04/13 07:22:03;;;;;;;;;;;;;;;22.55;42.22;101775.66;103800;1286;62205;-77
2024/04/13 07:24:29;;;;;;;;;;;;;;;22.56;42.12;101777.42;103786;1286;61416;-77
2024/04/13 07:26:55;;;;;;;;;;;;;;;22.56;42.02;101775.05;103715;1286;61316;-78
2024/04/13 07:29:21;;;;;;;;;;;;;;;22.56;42.12;101769.30;103935;1289;61489;-78
2024/04/13 07:31:46;;;;;;;;;;;;;;;22.56;42.15;101770.19;103460;1286;61233;-78
2024/04/13 07:34:12;;;;;;;;;;;;;;;22.57;41.96;101769.45;103761;1286;61371;-79
2024/04/13 07:36:37;;;;;;;;;;;;;;;22.57;42.02;101766.91;103792;1285;61380;-79
2024/04/13 07:39:03;;;;;;;;;;;;;;;22.58;42.11;101768.69;103782;1289;61892;-79
2024/04/13 07:41:28;;;;;;;;;;;;;;;22.57;42.04;101767.80;103890;1286;61370;-77
2024/04/13 07:43:54;;;;;;;;;;;;;;;22.58;41.98;101767.61;103722;1286;61384;-77
2024/04/13 07:46:21;;;;;;;;;;;;;;;22.58;41.92;101763.83;103905;1286;61405;-77
2024/04/13 07:48:47;;;;;;;;;;;;;;;22.58;41.85;101761.83;103714;1286;61294;-77
2024/04/13 07:51:12;;;;;;;;;;;;;;;22.58;42.07;101758.95;103476;1291;61550;-77
2024/04/13 07:53:38;;;;;;;;;;;;;;;22.59;42.01;101759.60;103657;1292;62479;-77
2024/04/13 07:56:03;;;;;;;;;;;;;;;22.59;41.97;101757.46;103584;1289;61540;-77
2024/04/13 07:58:29;;;;;;;;;;;;;;;22.59;41.95;101755.48;103393;1290;61391;-77
2024/04/13 08:00:55;;;;;;;;;;;;;;;22.59;41.95;101752.79;103181;1288;74265;-77
2024/04/13 08:03:21;;;;;;;;;;;;;;;22.60;41.99;101749.91;103426;1289;61381;-77
2024/04/13 08:05:47;;;;;;;;;;;;;;;22.60;41.87;101750.42;103399;1289;61864;-79
2024/04/13 08:08:13;;;;;;;;;;;;;;;22.59;41.96;101746.50;103196;1289;61542;-78
2024/04/13 08:10:42;;;;;;;;;;;;;;;22.60;41.88;101746.47;103579;1288;62877;-77
2024/04/13 08:13:08;;;;;;;;;;;;;;;22.60;41.87;101744.86;103588;1288;62357;-79
2024/04/13 08:15:38;;;;;;;;;;;;;;;22.60;41.88;101739.31;103428;1289;61479;-79
2024/04/13 08:18:04;;;;;;;;;;;;;;;22.60;41.91;101741.81;103455;1292;73163;-78
2024/04/13 08:20:29;;;;;;;;;;;;;;;22.60;41.80;101738.59;103394;1289;62018;-79
2024/04/13 08:22:55;;;;;;;;;;;;;;;22.60;41.84;101740.37;103492;1289;61552;-79
2024/04/13 08:25:21;;;;;;;;;;;;;;;22.60;41.86;101741.62;103428;1289;61282;-77
2024/04/13 08:27:46;;;;;;;;;;;;;;;22.61;41.92;101744.09;103353;1289;61476;-77
2024/04/13 08:30:12;;;;;;;;;;;;;;;22.61;41.76;101745.15;103786;1285;61817;-77
2024/04/13 08:32:38;;;;;;;;;;;;;;;22.61;41.91;101742.11;103739;1286;74440;-77
2024/04/13 08:35:05;;;;;;;;;;;;;;;22.61;42.07;101737.98;103777;1286;61470;-77
2024/04/13 08:37:32;;;;;;;;;;;;;;;22.61;41.91;101732.96;103987;1289;61390;-77
2024/04/13 08:39:57;;;;;;;;;;;;;;;22.62;42.02;101736.15;103806;1287;61425;-77
2024/04/13 08:42:26;;;;;;;;;;;;;;;22.61;41.98;101731.52;103821;1286;61384;-77
2024/04/13 08:44:52;;;;;;;;;;;;;;;22.62;41.88;101731.83;103837;1286;62225;-77
2024/04/13 08:47:17;;;;;;;;;;;;;;;22.62;42.11;101725.02;103840;1286;61375;-78
2024/04/13 08:49:43;;;;;;;;;;;;;;;22.62;41.90;101720.34;103800;1288;61387;-77
2024/04/13 08:52:10;;;;;;;;;;;;;;;22.63;41.89;101715.65;103775;1290;61916;-78
2024/04/13 08:54:35;;;;;;;;;;;;;;;22.63;42.00;101714.39;103787;1286;61365;-78
2024/04/13 08:57:01;;;;;;;;;;;;;;;22.63;41.98;101711.14;103763;1285;61383;-78
2024/04/13 08:59:27;;;;;;;;;;;;;;;22.63;41.87;101712.73;103831;1286;62553;-78
2024/04/13 09:01:52;;;;;;;;;;;;;;;22.64;42.00;101713.61;103749;1286;72395;-78
2024/04/13 09:04:18;;;;;;;;;;;;;;;22.64;41.89;101710.36;103690;1287;61457;-79
2024/04/13 09:06:44;;;;;;;;;;;;;;;22.65;41.96;101704.04;103724;1286;62044;-78
2024/04/13 09:09:10;;;;;;;;;;;;;;;22.65;41.84;101701.67;103784;1286;62899;-78
2024/04/13 09:11:37;;;;;;;;;;;;;;;22.65;41.96;101705.08;103454;1294;61388;-78
2024/04/13 09:14:04;;;;;;;;;;;;;;;22.65;41.90;101701.66;103787;1286;61364;-78
2024/04/13 09:16:33;;;;;;;;;;;;;;;22.66;41.98;101696.59;103706;1286;61799;-79
2024/04/13 09:18:59;;;;;;;;;;;;;;;22.67;41.93;101690.98;103816;1291;61247;-79
2024/04/13 09:21:26;;;;;;;;;;;;;;;22.67;42.00;101690.10;103745;1286;61355;-78
2024/04/13 09:23:51;;;;;;;;;;;;;;;22.67;41.89;101695.97;103778;1286;74417;-78
2024/04/13 09:26:17;;;;;;;;;;;;;;;22.67;41.76;101692.04;104038;1288;62607;-78
2024/04/13 09:28:46;;;;;;;;;;;;;;;22.68;41.74;101691.09;103771;1285;61451;-78
2024/04/13 09:31:12;;;;;;;;;;;;;;;22.68;41.81;101685.86;103764;1286;72531;-77
2024/04/13 09:33:39;;;;;;;;;;;;;;;22.68;41.72;101683.15;103838;1286;74382;-77
2024/04/13 09:36:05;;;;;;;;;;;;;;;22.69;41.57;101681.12;103786;1285;61371;-77
2024/04/13 09:38:30;;;;;;;;;;;;;;;22.70;41.79;101683.08;103717;1284;61387;-78
2024/04/13 09:40:59;;;;;;;;;;;;;;;22.69;41.57;101679.67;103810;1286;61458;-79
2024/04/13 09:43:24;;;;;;;;;;;;;;;22.70;41.57;101679.64;103701;1286;61279;-79
2024/04/13 09:46:00;;;;;;;;;;;;;;;22.70;41.72;101677.14;103801;1286;61463;-79
2024/04/13 09:48:25;;;;;;;;;;;;;;;22.70;41.55;101675.32;103742;1286;61314;-79
2024/04/13 09:50:51;;;;;;;;;;;;;;;22.70;41.60;101672.44;103726;1288;61377;-79
2024/04/13 09:53:20;;;;;;;;;;;;;;;22.71;41.65;101672.40;103811;1289;61464;-79
2024/04/13 09:55:45;;;;;;;;;;;;;;;22.71;41.70;101669.17;103819;1292;61205;-79
2024/04/13 09:58:14;;;;;;;;;;;;;;;22.71;41.65;101668.96;103684;1286;61265;-79
2024/04/13 10:00:40;;;;;;;;;;;;;;;22.72;41.61;101661.59;103734;1286;72654;-79
2024/04/13 10:03:06;;;;;;;;;;;;;;;22.71;41.60;101656.95;103775;1286;61384;-79
2024/04/13 10:05:33;;;;;;;;;;;;;;;22.72;41.54;101655.46;103828;1286;61312;-79
2024/04/13 10:07:59;;;;;;;;;;;;;;;22.72;41.54;101653.66;103777;1286;61198;-79
2024/04/13 10:10:25;;;;;;;;;;;;;;;22.72;41.71;101646.48;103780;1285;61307;-79
2024/04/13 10:12:50;;;;;;;;;;;;;;;22.72;41.56;101644.52;103977;1286;61533;-79
2024/04/13 10:15:16;;;;;;;;;;;;;;;22.72;41.57;101646.67;103739;1284;61449;-76
2024/04/13 10:17:42;;;;;;;;;;;;;;;22.72;41.49;101641.81;103790;1286;61384;-78
2024/04/13 10:20:07;;;;;;;;;;;;;;;22.73;41.53;101639.27;103740;1285;61405;-77
2024/04/13 10:22:33;;;;;;;;;;;;;;;22.72;41.51;101640.73;103465;1289;61480;-77
2024/04/13 10:25:07;;;;;;;;;;;;;;;22.73;41.57;101640.87;103459;1289;61300;-79
2024/04/13 10:27:33;;;;;;;;;;;;;;;22.72;41.49;101636.23;103419;1289;61461;-79
2024/04/13 10:29:59;;;;;;;;;;;;;;;22.73;41.42;101636.39;103584;1289;61323;-77
2024/04/13 10:32:25;;;;;;;;;;;;;;;22.73;41.47;101631.90;103405;1292;61311;-77
2024/04/13 10:34:51;;;;;;;;;;;;;;;22.73;41.51;101633.69;103477;1290;61474;-77
2024/04/13 10:37:26;;;;;;;;;;;;;;;22.73;41.43;101631.35;103584;1289;61490;-77
2024/04/13 10:39:52;;;;;;;;;;;;;;;22.73;41.53;101624.73;103597;1289;61320;-78
2024/04/13 10:42:18;;;;;;;;;;;;;;;22.73;41.41;101622.86;103356;1290;62738;-78
2024/04/13 10:44:44;;;;;;;;;;;;;;;22.74;41.47;101619.98;103461;1292;61515;-78
2024/04/13 10:47:23;;;;;;;;;;;;;;;22.74;41.42;101614.92;103586;1288;61438;-78
2024/04/13 10:49:49;;;;;;;;;;;;;;;22.74;41.43;101611.52;103771;1289;61550;-77
2024/04/13 10:52:15;;;;;;;;;;;;;;;22.75;41.33;101608.08;103462;1295;61419;-78
2024/04/13 10:54:40;;;;;;;;;;;;;;;22.75;41.25;101598.36;103676;1292;61826;-79
2024/04/13 10:57:06;;;;;;;;;;;;;;;22.76;41.22;101596.34;103880;1286;61471;-79
2024/04/13 10:59:31;;;;;;;;;;;;;;;22.76;41.31;101594.71;103756;1290;61480;-79
2024/04/13 11:02:00;;;;;;;;;;;;;;;22.77;41.25;101593.96;103953;1286;61275;-80
2024/04/13 11:04:25;;;;;;;;;;;;;;;22.77;41.38;101597.52;103999;1286;72299;-80
2024/04/13 11:06:51;;;;;;;;;;;;;;;22.78;41.33;101600.18;103809;1286;61359;-78
2024/04/13 11:09:17;;;;;;;;;;;;;;;22.78;41.29;101595.70;104118;1286;61381;-78
2024/04/13 11:11:43;;;;;;;;;;;;;;;22.79;41.27;101596.71;104136;1286;61381;-79
2024/04/13 11:14:09;;;;;;;;;;;;;;;22.79;41.28;101592.19;104108;1291;61889;-79
2024/04/13 11:16:34;;;;;;;;;;;;;;;22.80;41.22;101588.55;104147;1285;61397;-78
2024/04/13 11:19:00;;;;;;;;;;;;;;;22.81;41.28;101585.45;104238;1285;61342;-79
2024/04/13 11:21:26;;;;;;;;;;;;;;;22.82;41.17;101583.92;104100;1285;61356;-78
2024/04/13 11:23:52;;;;;;;;;;;;;;;22.83;41.20;101577.26;104065;1286;61422;-77
2024/04/13 11:26:17;;;;;;;;;;;;;;;22.84;41.27;101577.55;104072;1286;61396;-78
2024/04/13 11:28:43;;;;;;;;;;;;;;;22.84;41.19;101571.23;104049;1286;62586;-79
2024/04/13 11:31:08;;;;;;;;;;;;;;;22.84;41.17;101567.08;103935;1286;61543;-78
2024/04/13 11:33:34;;;;;;;;;;;;;;;22.85;41.08;101559.13;103845;1286;61263;-78
2024/04/13 11:36:00;;;;;;;;;;;;;;;22.85;41.01;101558.80;103844;1291;61326;-78
2024/04/13 11:38:28;;;;;;;;;;;;;;;22.86;41.10;101557.98;103921;1285;61349;-78
2024/04/13 11:40:53;;;;;;;;;;;;;;;22.87;40.99;101555.27;103879;1286;61388;-78
2024/04/13 11:43:20;;;;;;;;;;;;;;;22.87;41.07;101551.64;103710;1285;62578;-78
2024/04/13 11:45:46;;;;;;;;;;;;;;;22.87;41.01;101545.89;103537;1286;61495;-78
2024/04/13 11:48:11;;;;;;;;;;;;;;;22.88;41.08;101547.29;103775;1287;62517;-76
2024/04/13 11:50:38;;;;;;;;;;;;;;;22.87;40.95;101542.29;103721;1289;61391;-78
2024/04/13 11:53:03;;;;;;;;;;;;;;;22.88;41.02;101539.20;103784;1286;61341;-78
2024/04/13 11:55:30;;;;;;;;;;;;;;;22.88;40.88;101537.56;103823;1285;61362;-79
2024/04/13 11:57:57;;;;;;;;;;;;;;;22.89;40.97;101536.63;103699;1286;61932;-79
2024/04/13 12:00:23;;;;;;;;;;;;;;;22.89;40.88;101531.94;103881;1286;72514;-79
2024/04/13 12:02:49;;;;;;;;;;;;;;;22.89;40.87;101532.27;103688;1286;61396;-78
2024/04/13 12:05:15;;;;;;;;;;;;;;;22.90;40.94;101531.18;103722;1286;61371;-77
2024/04/13 12:07:41;;;;;;;;;;;;;;;22.90;40.88;101529.15;103859;1286;61326;-77
2024/04/13 12:10:09;;;;;;;;;;;;;;;22.91;40.80;101527.89;103805;1286;61368;-78
2024/04/13 12:12:35;;;;;;;;;;;;;;;22.91;40.77;101526.42;103840;1290;61418;-78
2024/04/13 12:15:00;;;;;;;;;;;;;;;22.91;40.86;101519.05;103767;1286;61474;-78
2024/04/13 12:17:26;;;;;;;;;;;;;;;22.91;40.84;101516.52;103719;1286;61314;-78
2024/04/13 12:19:51;;;;;;;;;;;;;;;22.92;40.81;101513.64;103894;1285;61390;-78